createdAt,value
2023-04-10T00:00:32.282Z,3.07
2023-04-10T00:03:34.330Z,3.04
2023-04-10T00:06:36.161Z,2.97
2023-04-10T00:09:38.073Z,2.92
2023-04-10T00:12:39.870Z,2.86
2023-04-10T00:15:41.768Z,2.82
2023-04-10T00:18:43.584Z,2.78
2023-04-10T00:21:45.594Z,2.74
2023-04-10T00:24:47.333Z,2.74
2023-04-10T00:27:49.440Z,2.69
2023-04-10T00:30:51.156Z,2.64
2023-04-10T00:33:53.102Z,2.63
2023-04-10T00:36:55.099Z,2.61
2023-04-10T00:39:57.056Z,2.70
2023-04-10T00:42:58.859Z,2.67
2023-04-10T00:46:00.989Z,2.62
2023-04-10T00:49:02.865Z,2.60
2023-04-10T00:52:04.794Z,2.57
2023-04-10T00:55:07.738Z,2.54
2023-04-10T00:58:14.435Z,2.53
2023-04-10T01:01:16.310Z,2.51
2023-04-10T01:04:18.525Z,2.51
2023-04-10T01:07:27.977Z,2.52
2023-04-10T01:10:48.073Z,2.55
2023-04-10T01:14:12.395Z,2.58
2023-04-10T01:17:22.937Z,2.58
2023-04-10T01:20:30.089Z,2.63
2023-04-10T01:23:42.249Z,2.69
2023-04-10T01:27:01.751Z,2.72
2023-04-10T01:30:06.775Z,2.74
2023-04-10T01:33:12.842Z,2.74
2023-04-10T01:36:24.757Z,2.74
2023-04-10T01:39:37.617Z,2.76
2023-04-10T01:42:48.450Z,2.82
2023-04-10T01:45:53.111Z,2.72
2023-04-10T01:48:56.215Z,2.58
2023-04-10T01:52:00.284Z,2.53
2023-04-10T01:55:02.964Z,2.44
2023-04-10T01:58:07.644Z,2.44
2023-04-10T02:01:19.170Z,2.44
2023-04-10T02:04:28.358Z,2.43
2023-04-10T02:07:32.754Z,2.45
2023-04-10T02:10:45.326Z,2.47
2023-04-10T02:13:49.382Z,2.48
2023-04-10T02:16:54.977Z,2.50
2023-04-10T02:19:58.579Z,2.45
2023-04-10T02:23:03.993Z,2.42
2023-04-10T02:26:09.210Z,2.37
2023-04-10T02:29:10.823Z,2.36
2023-04-10T02:32:12.537Z,2.28
2023-04-10T02:35:14.179Z,2.26
2023-04-10T02:38:17.395Z,2.18
2023-04-10T02:41:19.192Z,2.14
2023-04-10T02:44:21.034Z,2.11
2023-04-10T02:47:23.957Z,2.11
2023-04-10T02:50:29.623Z,2.08
2023-04-10T02:53:33.583Z,2.07
2023-04-10T02:56:35.285Z,2.09
2023-04-10T02:59:37.187Z,2.10
2023-04-10T03:02:38.999Z,2.08
2023-04-10T03:05:40.769Z,2.07
2023-04-10T03:08:42.390Z,2.05
2023-04-10T03:11:44.072Z,2.09
2023-04-10T03:14:45.728Z,2.12
2023-04-10T03:17:47.550Z,2.07
2023-04-10T03:20:49.327Z,2.02
2023-04-10T03:23:51.418Z,1.92
2023-04-10T03:26:53.201Z,1.95
2023-04-10T03:29:54.882Z,1.91
2023-04-10T03:32:56.449Z,1.92
2023-04-10T03:35:58.704Z,1.90
2023-04-10T03:39:00.501Z,1.93
2023-04-10T03:42:02.261Z,1.96
2023-04-10T03:45:04.688Z,2.00
2023-04-10T03:48:06.677Z,2.03
2023-04-10T03:51:08.492Z,2.06
2023-04-10T03:54:10.554Z,2.08
2023-04-10T03:57:12.318Z,2.10
2023-04-10T04:00:15.856Z,2.07
2023-04-10T04:03:17.972Z,2.09
2023-04-10T04:06:19.849Z,2.07
2023-04-10T04:09:21.930Z,2.02
2023-04-10T04:12:23.681Z,2.05
2023-04-10T04:15:25.545Z,2.07
2023-04-10T04:18:27.266Z,2.12
2023-04-10T04:21:29.049Z,2.14
2023-04-10T04:24:30.714Z,2.19
2023-04-10T04:27:32.353Z,2.25
2023-04-10T04:30:34.111Z,2.35
2023-04-10T04:33:35.817Z,2.37
2023-04-10T04:36:37.490Z,2.37
2023-04-10T04:39:39.133Z,2.41
2023-04-10T04:42:40.812Z,2.44
2023-04-10T04:45:42.443Z,2.54
2023-04-10T04:48:44.106Z,2.62
2023-04-10T04:51:45.839Z,2.70
2023-04-10T04:54:47.490Z,2.78
2023-04-10T04:57:49.142Z,2.86
2023-04-10T05:00:54.758Z,2.97
2023-04-10T05:03:56.546Z,3.06
2023-04-10T05:06:58.346Z,3.13
2023-04-10T05:09:59.998Z,3.17
2023-04-10T05:13:01.842Z,3.31
2023-04-10T05:16:03.541Z,3.41
2023-04-10T05:19:05.431Z,3.56
2023-04-10T05:22:07.022Z,3.72
2023-04-10T05:25:09.075Z,3.87
2023-04-10T05:28:10.906Z,4.01
2023-04-10T05:31:12.608Z,4.12
2023-04-10T05:34:14.235Z,4.23
2023-04-10T05:37:15.937Z,4.35
2023-04-10T05:40:17.572Z,4.46
2023-04-10T05:43:19.215Z,4.54
2023-04-10T05:46:20.918Z,4.64
2023-04-10T05:49:22.740Z,4.71
2023-04-10T05:52:24.388Z,4.81
2023-04-10T05:55:26.003Z,5.05
2023-04-10T05:58:29.005Z,5.21
2023-04-10T06:01:30.977Z,5.45
2023-04-10T06:04:32.797Z,5.62
2023-04-10T06:07:34.527Z,5.77
2023-04-10T06:10:36.440Z,5.97
2023-04-10T06:13:38.143Z,6.08
2023-04-10T06:16:39.795Z,6.26
2023-04-10T06:19:41.475Z,6.39
2023-04-10T06:22:43.106Z,6.50
2023-04-10T06:25:44.852Z,6.76
2023-04-10T06:28:46.765Z,6.90
2023-04-10T06:31:48.539Z,6.95
2023-04-10T06:34:50.204Z,7.63
2023-04-10T06:37:51.916Z,8.38
2023-04-10T06:41:12.370Z,9.27
2023-04-10T06:44:14.065Z,10.25
2023-04-10T06:47:17.064Z,11.49
2023-04-10T06:50:18.847Z,12.96
2023-04-10T06:53:20.590Z,14.40
2023-04-10T06:56:22.246Z,15.94
2023-04-10T06:59:23.869Z,17.61
2023-04-10T07:02:25.695Z,17.46
2023-04-10T07:05:27.409Z,16.75
2023-04-10T07:08:29.117Z,19.25
2023-04-10T07:11:31.005Z,18.35
2023-04-10T07:14:35.019Z,18.59
2023-04-10T07:17:36.681Z,19.27
2023-04-10T07:20:38.404Z,19.63
2023-04-10T07:23:40.180Z,20.76
2023-04-10T07:26:41.957Z,21.22
2023-04-10T07:29:43.679Z,22.41
2023-04-10T07:32:46.058Z,21.57
2023-04-10T07:35:47.753Z,22.17
2023-04-10T07:38:49.360Z,22.89
2023-04-10T07:41:53.529Z,22.75
2023-04-10T07:44:55.158Z,23.49
2023-04-10T07:47:58.418Z,23.78
2023-04-10T07:51:00.044Z,26.62
2023-04-10T07:54:03.742Z,25.07
2023-04-10T07:57:05.439Z,20.05
2023-04-10T08:00:08.916Z,17.41
2023-04-10T08:03:12.955Z,16.45
2023-04-10T08:06:14.980Z,14.74
2023-04-10T08:09:16.638Z,14.65
2023-04-10T08:12:18.355Z,14.15
2023-04-10T08:15:20.030Z,13.27
2023-04-10T08:18:21.606Z,12.83
2023-04-10T08:21:27.803Z,12.73
2023-04-10T08:24:29.519Z,12.58
2023-04-10T08:27:31.175Z,13.03
2023-04-10T08:30:32.860Z,12.61
2023-04-10T08:33:34.507Z,12.51
2023-04-10T08:36:36.189Z,12.37
2023-04-10T08:39:38.246Z,12.51
2023-04-10T08:42:39.864Z,12.83
2023-04-10T08:45:41.795Z,12.95
2023-04-10T08:48:53.396Z,13.01
2023-04-10T08:51:57.700Z,14.18
2023-04-10T08:55:02.771Z,16.25
2023-04-10T08:58:04.928Z,15.52
2023-04-10T09:01:07.589Z,15.02
2023-04-10T09:04:12.039Z,15.26
2023-04-10T09:07:13.819Z,13.38
2023-04-10T09:10:15.870Z,13.68
2023-04-10T09:13:36.136Z,13.29
2023-04-10T09:16:37.759Z,13.13
2023-04-10T09:19:39.807Z,13.04
2023-04-10T09:22:41.391Z,12.65
2023-04-10T09:25:43.822Z,12.44
2023-04-10T09:28:58.803Z,12.81
2023-04-10T09:32:00.571Z,12.19
2023-04-10T09:35:02.200Z,12.74
2023-04-10T09:38:17.503Z,13.45
2023-04-10T09:41:19.106Z,13.30
2023-04-10T09:44:33.878Z,13.30
2023-04-10T09:47:36.282Z,14.11
2023-04-10T09:50:40.968Z,14.06
2023-04-10T09:53:50.559Z,13.80
2023-04-10T09:56:52.932Z,13.93
2023-04-10T09:59:56.351Z,14.07
2023-04-10T10:02:59.856Z,13.89
2023-04-10T10:06:02.424Z,13.60
2023-04-10T10:09:05.066Z,13.54
2023-04-10T10:12:09.208Z,14.14
2023-04-10T10:15:58.888Z,13.83
2023-04-10T10:19:09.862Z,13.70
2023-04-10T10:22:12.054Z,13.35
2023-04-10T10:25:14.178Z,12.78
2023-04-10T10:28:17.563Z,11.95
2023-04-10T10:31:19.970Z,12.08
2023-04-10T10:34:21.837Z,11.81
2023-04-10T10:37:24.134Z,11.75
2023-04-10T10:40:38.673Z,12.20
2023-04-10T10:43:56.208Z,12.63
2023-04-10T10:47:09.698Z,12.16
2023-04-10T10:50:11.301Z,12.11
2023-04-10T10:53:45.980Z,11.20
2023-04-10T10:56:47.633Z,10.48
2023-04-10T10:59:49.234Z,10.41
2023-04-10T11:03:08.999Z,10.26
2023-04-10T11:06:12.982Z,10.15
2023-04-10T11:09:47.606Z,10.25
2023-04-10T11:13:18.445Z,10.34
2023-04-10T11:16:21.375Z,9.83
2023-04-10T11:19:25.489Z,9.61
2023-04-10T11:22:28.100Z,10.18
2023-04-10T11:25:55.797Z,10.50
2023-04-10T11:28:57.420Z,10.24
2023-04-10T11:32:01.506Z,10.17
2023-04-10T11:35:05.081Z,10.32
2023-04-10T11:38:11.636Z,10.40
2023-04-10T11:41:13.245Z,11.28
2023-04-10T11:44:16.696Z,11.15
2023-04-10T11:47:18.313Z,11.09
2023-04-10T11:50:21.369Z,11.14
2023-04-10T11:53:23.359Z,11.76
2023-04-10T11:56:25.003Z,11.01
2023-04-10T11:59:27.014Z,11.17
2023-04-10T12:02:28.749Z,11.59
2023-04-10T12:05:46.173Z,11.30
2023-04-10T12:08:51.350Z,11.44
2023-04-10T12:12:01.528Z,11.91
2023-04-10T12:15:04.402Z,11.82
2023-04-10T12:18:06.881Z,11.83
2023-04-10T12:21:09.015Z,11.57
2023-04-10T12:24:11.319Z,11.34
2023-04-10T12:27:23.869Z,10.79
2023-04-10T12:30:25.510Z,10.44
2023-04-10T12:33:27.109Z,10.81
2023-04-10T12:36:30.518Z,10.75
2023-04-10T12:39:32.265Z,10.89
2023-04-10T12:42:40.270Z,11.04
2023-04-10T12:45:45.636Z,11.05
2023-04-10T12:48:47.258Z,11.29
2023-04-10T12:51:53.342Z,11.32
2023-04-10T12:54:54.919Z,11.90
2023-04-10T12:57:57.069Z,12.19
2023-04-10T13:01:03.640Z,11.87
2023-04-10T13:04:05.797Z,12.31
2023-04-10T13:07:07.437Z,13.26
2023-04-10T13:10:09.759Z,12.35
2023-04-10T13:13:13.075Z,12.24
2023-04-10T13:16:14.717Z,12.99
2023-04-10T13:19:16.412Z,15.61
2023-04-10T13:22:18.274Z,16.77
2023-04-10T13:25:20.415Z,15.75
2023-04-10T13:28:22.075Z,14.50
2023-04-10T13:31:23.869Z,14.67
2023-04-10T13:34:26.208Z,16.65
2023-04-10T13:37:27.957Z,16.75
2023-04-10T13:40:29.667Z,15.84
2023-04-10T13:43:31.339Z,18.23
2023-04-10T13:46:33.059Z,17.70
2023-04-10T13:49:34.735Z,16.53
2023-04-10T13:52:36.355Z,16.72
2023-04-10T13:55:38.938Z,16.29
2023-04-10T13:58:40.584Z,15.31
2023-04-10T14:01:42.737Z,15.93
2023-04-10T14:04:46.225Z,15.62
2023-04-10T14:07:47.966Z,18.48
2023-04-10T14:10:50.877Z,18.28
2023-04-10T14:13:53.136Z,16.99
2023-04-10T14:16:54.829Z,15.93
2023-04-10T14:19:56.477Z,15.58
2023-04-10T14:22:58.077Z,15.15
2023-04-10T14:25:59.774Z,14.51
2023-04-10T14:29:01.419Z,14.32
2023-04-10T14:32:03.070Z,14.39
2023-04-10T14:35:05.093Z,14.59
2023-04-10T14:38:06.858Z,14.13
2023-04-10T14:41:08.668Z,13.77
2023-04-10T14:44:10.314Z,13.40
2023-04-10T14:47:11.944Z,13.47
2023-04-10T14:50:13.893Z,13.62
2023-04-10T14:53:16.241Z,13.92
2023-04-10T14:56:17.976Z,13.97
2023-04-10T14:59:19.733Z,14.15
2023-04-10T15:02:21.695Z,14.01
2023-04-10T15:05:23.532Z,14.21
2023-04-10T15:08:25.325Z,14.06
2023-04-10T15:11:27.397Z,14.07
2023-04-10T15:14:29.223Z,14.41
2023-04-10T15:17:30.975Z,14.27
2023-04-10T15:20:32.603Z,14.31
2023-04-10T15:23:34.302Z,14.60
2023-04-10T15:26:35.954Z,14.30
2023-04-10T15:29:39.897Z,14.08
2023-04-10T15:32:41.537Z,13.76
2023-04-10T15:35:48.461Z,13.57
2023-04-10T15:38:50.432Z,13.40
2023-04-10T15:41:52.376Z,13.37
2023-04-10T15:44:53.975Z,13.58
2023-04-10T15:47:55.949Z,13.67
2023-04-10T15:50:59.276Z,13.76
2023-04-10T15:54:03.275Z,13.62
2023-04-10T15:57:05.037Z,13.46
2023-04-10T16:00:07.360Z,13.58
2023-04-10T16:03:09.154Z,13.72
2023-04-10T16:06:10.964Z,13.80
2023-04-10T16:12:20.230Z,12.68
2023-04-10T16:15:22.433Z,12.42
2023-04-10T16:18:24.053Z,11.88
2023-04-10T16:21:27.150Z,10.94
2023-04-10T16:24:28.827Z,10.75
2023-04-10T16:27:30.436Z,10.54
2023-04-10T16:30:32.086Z,10.27
2023-04-10T16:33:33.801Z,10.16
2023-04-10T16:36:35.550Z,10.12
2023-04-10T16:39:37.150Z,10.00
2023-04-10T16:42:39.469Z,9.13
2023-04-10T16:45:41.181Z,8.91
2023-04-10T16:48:42.817Z,9.01
2023-04-10T16:51:44.727Z,9.07
2023-04-10T16:54:46.400Z,9.12
2023-04-10T16:57:48.002Z,9.42
2023-04-10T17:00:49.627Z,9.50
2023-04-10T17:03:51.480Z,8.98
2023-04-10T17:06:53.258Z,9.46
2023-04-10T17:09:54.854Z,9.36
2023-04-10T17:12:56.864Z,9.41
2023-04-10T17:15:58.540Z,9.42
2023-04-10T17:19:00.225Z,8.82
2023-04-10T17:22:01.909Z,9.01
2023-04-10T17:25:03.721Z,9.08
2023-04-10T17:28:05.502Z,8.88
2023-04-10T17:31:07.150Z,8.67
2023-04-10T17:34:08.809Z,8.86
2023-04-10T17:37:10.832Z,9.41
2023-04-10T17:40:13.016Z,9.20
2023-04-10T17:43:14.753Z,9.03
2023-04-10T17:46:17.104Z,8.97
2023-04-10T17:49:18.839Z,9.10
2023-04-10T17:52:20.775Z,9.42
2023-04-10T17:55:22.550Z,8.94
2023-04-10T17:58:24.138Z,9.00
2023-04-10T18:01:31.464Z,8.60
2023-04-10T18:04:33.276Z,8.52
2023-04-10T18:07:34.985Z,8.75
2023-04-10T18:10:36.924Z,8.52
2023-04-10T18:13:39.043Z,8.45
2023-04-10T18:16:41.299Z,8.54
2023-04-10T18:19:43.433Z,8.88
2023-04-10T18:22:47.443Z,8.99
2023-04-10T18:25:53.620Z,8.82
2023-04-10T18:28:55.598Z,8.75
2023-04-10T18:31:57.479Z,8.63
2023-04-10T18:34:59.956Z,8.55
2023-04-10T18:38:02.143Z,8.55
2023-04-10T18:41:04.554Z,8.56
2023-04-10T18:44:06.461Z,8.54
2023-04-10T18:47:08.236Z,8.55
2023-04-10T18:50:11.714Z,8.50
2023-04-10T18:53:13.790Z,8.55
2023-04-10T18:56:16.901Z,8.59
2023-04-10T18:59:18.803Z,8.57
2023-04-10T19:02:21.467Z,8.60
2023-04-10T19:05:23.487Z,8.58
2023-04-10T19:08:25.403Z,8.55
2023-04-10T19:11:27.442Z,9.09
2023-04-10T19:14:30.014Z,9.00
2023-04-10T19:17:32.364Z,8.87
2023-04-10T19:20:50.944Z,8.56
2023-04-10T19:23:55.419Z,8.43
2023-04-10T19:26:57.585Z,8.48
2023-04-10T19:29:59.680Z,9.18
2023-04-10T19:33:01.901Z,9.16
2023-04-10T19:39:06.327Z,8.23
2023-04-10T19:42:07.929Z,8.69
2023-04-10T19:45:10.707Z,8.28
2023-04-10T19:48:12.509Z,8.71
2023-04-10T19:51:15.096Z,8.69
2023-04-10T19:54:16.918Z,7.93
2023-04-10T19:57:21.481Z,7.92
2023-04-10T20:00:23.209Z,7.95
2023-04-10T20:03:28.050Z,7.88
2023-04-10T20:06:29.882Z,7.48
2023-04-10T20:09:31.636Z,7.79
2023-04-10T20:12:33.305Z,7.48
2023-04-10T20:15:35.087Z,8.07
2023-04-10T20:18:38.725Z,8.05
2023-04-10T20:21:40.320Z,7.87
2023-04-10T20:24:42.011Z,7.78
2023-04-10T20:27:43.651Z,7.21
2023-04-10T20:30:45.413Z,7.00
2023-04-10T20:33:47.234Z,7.22
2023-04-10T20:36:49.007Z,7.19
2023-04-10T20:39:50.809Z,6.69
2023-04-10T20:42:53.631Z,7.26
2023-04-10T20:45:55.278Z,6.40
2023-04-10T20:48:59.223Z,6.54
2023-04-10T20:52:00.967Z,6.15
2023-04-10T20:55:02.998Z,6.84
2023-04-10T20:58:05.442Z,7.02
2023-04-10T21:01:10.082Z,6.38
2023-04-10T21:04:11.839Z,6.08
2023-04-10T21:07:13.483Z,6.33
2023-04-10T21:10:15.400Z,6.59
2023-04-10T21:13:16.944Z,6.53
2023-04-10T21:16:19.021Z,6.05
2023-04-10T21:19:20.732Z,6.40
2023-04-10T21:22:22.399Z,5.82
2023-04-10T21:25:24.007Z,5.98
2023-04-10T21:28:25.657Z,5.92
2023-04-10T21:31:27.334Z,5.85
2023-04-10T21:34:29.145Z,5.83
2023-04-10T21:37:31.073Z,5.68
2023-04-10T21:40:34.567Z,5.63
2023-04-10T21:43:37.197Z,5.62
2023-04-10T21:46:38.830Z,5.54
2023-04-10T21:49:40.430Z,5.42
2023-04-10T21:52:42.325Z,5.34
2023-04-10T21:55:43.964Z,5.40
2023-04-10T21:58:45.604Z,5.41
2023-04-10T22:01:47.293Z,5.25
2023-04-10T22:04:54.645Z,5.18
2023-04-10T22:07:56.712Z,5.21
2023-04-10T22:10:58.426Z,5.12
2023-04-10T22:14:05.519Z,5.12
2023-04-10T22:17:14.876Z,5.00
2023-04-10T22:20:16.644Z,4.86
2023-04-10T22:23:18.282Z,4.80
2023-04-10T22:26:21.178Z,4.78
2023-04-10T22:29:22.822Z,4.89
2023-04-10T22:32:24.467Z,5.00
2023-04-10T22:35:26.095Z,5.08
2023-04-10T22:38:27.704Z,5.05
2023-04-10T22:41:32.574Z,5.04
2023-04-10T22:44:34.236Z,5.01
2023-04-10T22:47:36.035Z,4.90
2023-04-10T22:50:37.719Z,5.00
2023-04-10T22:53:39.864Z,4.73
2023-04-10T22:56:41.695Z,4.66
2023-04-10T22:59:43.360Z,4.81
2023-04-10T23:02:45.109Z,4.77
2023-04-10T23:05:47.045Z,4.86
2023-04-10T23:08:48.720Z,4.76
2023-04-10T23:11:50.445Z,4.52
2023-04-10T23:14:52.056Z,4.42
2023-04-10T23:17:53.830Z,4.84
2023-04-10T23:20:55.582Z,5.02
2023-04-10T23:23:57.339Z,5.14
2023-04-10T23:26:58.998Z,4.77
2023-04-10T23:30:02.027Z,4.72
2023-04-10T23:33:03.762Z,4.78
2023-04-10T23:36:06.014Z,4.77
2023-04-10T23:39:08.615Z,4.55
2023-04-10T23:42:10.398Z,4.46
2023-04-10T23:45:12.170Z,4.18
2023-04-10T23:48:13.784Z,3.98
2023-04-10T23:51:15.479Z,3.95
2023-04-10T23:54:17.131Z,3.98
2023-04-10T23:57:18.752Z,4.28
